Time;durP1;ratioP1;P1;durP2;ratioP2;P2;SDS_P1;SDS_P2;PMS_P1;PMS_P2;Temp;Humidity;BMP_temperature;BMP_pressure;BME280_temperature;BME280_humidity;BME280_pressure;Samples;Min_cycle;Max_cycle;Signal;HPM_P1;HPM_P2
2021/06/05 00:00:41;;;;;;;9.48;7.03;;;;;;;20.74;70.67;101819.91;5054976;28;20045;-48
2021/06/05 00:03:10;;;;;;;10.05;7.38;;;;;;;20.74;71.04;101825.47;5054710;28;20051;-52
2021/06/05 00:05:59;;;;;;;12.93;9.80;;;;;;;20.72;71.14;101822.19;5054786;28;20049;-50
2021/06/05 00:08:30;;;;;;;13.43;10.18;;;;;;;20.70;71.41;101818.09;5054452;28;20056;-50
2021/06/05 00:11:02;;;;;;;10.88;7.88;;;;;;;20.68;71.08;101821.16;5054991;28;20052;-49
2021/06/05 00:13:33;;;;;;;13.07;8.23;;;;;;;20.69;70.77;101817.28;5054347;28;20138;-50
2021/06/05 00:16:03;;;;;;;13.43;9.27;;;;;;;20.70;71.29;101813.34;5053827;28;20044;-48
2021/06/05 00:18:32;;;;;;;11.55;7.82;;;;;;;20.68;71.44;101815.63;5054642;28;20052;-50
2021/06/05 00:20:59;;;;;;;10.98;8.23;;;;;;;20.69;71.23;101816.47;5054490;28;20068;-50
2021/06/05 00:23:27;;;;;;;10.85;7.53;;;;;;;20.70;70.90;101820.84;5053898;28;20513;-49
2021/06/05 00:25:58;;;;;;;13.52;9.23;;;;;;;20.68;71.26;101807.31;5054383;28;20053;-49
2021/06/05 00:28:26;;;;;;;12.43;8.50;;;;;;;20.67;70.99;101802.91;5054163;28;20055;-50
2021/06/05 00:30:54;;;;;;;12.00;8.40;;;;;;;20.61;71.06;101807.75;5054428;28;20091;-49
2021/06/05 00:33:22;;;;;;;11.13;9.05;;;;;;;20.57;71.40;101805.94;5054398;28;20073;-51
2021/06/05 00:35:49;;;;;;;11.57;8.73;;;;;;;20.53;71.49;101808.44;5054036;28;20037;-51
2021/06/05 00:38:17;;;;;;;10.18;7.53;;;;;;;20.52;71.25;101817.91;5053816;28;20640;-50
2021/06/05 00:40:49;;;;;;;12.23;8.88;;;;;;;20.53;71.72;101807.63;5053008;28;20037;-50
2021/06/05 00:43:20;;;;;;;12.05;9.15;;;;;;;20.53;71.65;101807.63;5054382;28;20090;-53
2021/06/05 00:45:49;;;;;;;11.85;9.00;;;;;;;20.49;71.99;101804.66;5054228;28;20755;-51
2021/06/05 00:48:19;;;;;;;13.30;9.23;;;;;;;20.46;72.07;101805.28;5053183;28;20052;-50
2021/06/05 00:50:55;;;;;;;12.95;9.15;;;;;;;20.43;71.97;101798.44;5036734;28;20132;-49
2021/06/05 00:53:28;;;;;;;11.80;9.35;;;;;;;20.41;72.28;101806.22;5052882;28;20064;-50
2021/06/05 00:55:59;;;;;;;12.18;9.57;;;;;;;20.39;72.16;101814.00;5052899;28;20041;-53
2021/06/05 00:58:29;;;;;;;12.93;9.73;;;;;;;20.39;72.38;101808.47;5052181;28;20081;-51
2021/06/05 01:01:06;;;;;;;10.95;9.32;;;;;;;20.42;72.33;101815.38;5052700;28;20119;-49
2021/06/05 01:03:34;;;;;;;12.25;8.80;;;;;;;20.44;72.25;101821.38;5052761;28;20041;-49
2021/06/05 01:06:06;;;;;;;12.82;9.25;;;;;;;20.44;72.38;101815.84;5035899;28;20132;-50
2021/06/05 01:09:22;;;;;;;12.57;9.90;;;;;;;20.46;72.09;101821.09;5036384;28;20068;-49
2021/06/05 01:11:57;;;;;;;16.40;11.02;;;;;;;20.45;72.42;101813.94;4991968;28;20559;-49
2021/06/05 01:14:55;;;;;;;12.95;10.10;;;;;;;20.37;72.27;101816.28;4991939;28;20058;-50
2021/06/05 01:17:29;;;;;;;12.25;10.02;;;;;;;20.35;72.21;101812.22;4956420;28;20047;-49
2021/06/05 01:20:19;;;;;;;13.13;10.38;;;;;;;20.33;72.33;101809.72;4956100;28;20065;-49
2021/06/05 01:23:12;;;;;;;13.32;10.20;;;;;;;20.31;72.04;101812.00;4975772;28;20142;-51
2021/06/05 01:25:46;;;;;;;13.68;10.02;;;;;;;20.31;72.15;101811.19;4975867;28;20633;-50
2021/06/05 01:28:24;;;;;;;13.00;10.32;;;;;;;20.32;72.22;101810.84;4991710;28;20073;-52
2021/06/05 01:30:55;;;;;;;19.42;11.15;;;;;;;20.32;72.28;101805.31;4975541;28;20054;-54
2021/06/05 01:33:28;;;;;;;12.68;9.55;;;;;;;20.34;72.10;101808.59;4975959;28;20110;-52
2021/06/05 01:36:03;;;;;;;16.63;12.20;;;;;;;20.34;72.25;101816.91;4975953;28;20496;-51
2021/06/05 01:38:34;;;;;;;12.90;10.95;;;;;;;20.32;72.25;101807.25;4975611;28;20493;-49
2021/06/05 01:41:04;;;;;;;14.05;10.57;;;;;;;20.31;72.37;101811.19;4991547;28;20073;-49
2021/06/05 01:43:34;;;;;;;12.75;10.32;;;;;;;20.33;72.21;101814.47;4991178;28;20050;-50
2021/06/05 01:46:04;;;;;;;13.63;10.35;;;;;;;20.34;72.55;101805.00;4997865;28;20045;-53
2021/06/05 01:48:33;;;;;;;13.20;10.98;;;;;;;20.33;72.48;101809.72;5035168;28;20411;-50
2021/06/05 01:51:09;;;;;;;14.30;10.75;;;;;;;20.31;72.39;101808.41;5054296;28;20037;-48
2021/06/05 01:54:08;;;;;;;14.82;10.32;;;;;;;20.26;72.59;101792.72;5051655;28;20080;-54
2021/06/05 01:56:40;;;;;;;13.00;9.95;;;;;;;20.26;72.59;101795.50;4971913;28;20521;-50
2021/06/05 01:59:18;;;;;;;14.52;10.80;;;;;;;20.26;72.47;101797.44;4955399;28;20502;-50
2021/06/05 02:01:53;;;;;;;14.10;10.98;;;;;;;20.22;72.70;101795.28;4971782;28;20082;-50
2021/06/05 02:04:20;;;;;;;14.73;11.05;;;;;;;20.21;72.75;101790.88;4971235;28;20066;-53
2021/06/05 02:06:52;;;;;;;17.75;11.32;;;;;;;20.21;72.85;101798.38;4956354;28;20054;-50
2021/06/05 02:09:23;;;;;;;14.07;10.50;;;;;;;20.22;72.65;101798.06;4955264;28;20058;-50
2021/06/05 02:12:09;;;;;;;15.55;12.68;;;;;;;20.25;72.42;101796.59;4971719;28;20163;-53
2021/06/05 02:14:51;;;;;;;16.00;12.27;;;;;;;20.26;72.44;101798.25;4953592;28;20051;-52
2021/06/05 02:17:24;;;;;;;15.35;12.30;;;;;;;20.27;72.62;101793.53;4940450;28;20045;-50
2021/06/05 02:20:29;;;;;;;19.88;13.50;;;;;;;20.28;72.58;101795.19;4939217;28;20086;-52
2021/06/05 02:23:05;;;;;;;20.52;14.57;;;;;;;20.27;72.84;101794.34;4954922;28;20074;-48
2021/06/05 02:25:34;;;;;;;19.45;15.18;;;;;;;20.24;73.10;101794.16;4955199;28;20066;-50
2021/06/05 02:28:04;;;;;;;21.23;15.20;;;;;;;20.18;73.42;101788.75;4971390;28;20058;-51
2021/06/05 02:30:34;;;;;;;18.60;13.65;;;;;;;20.15;73.43;101797.66;4939291;28;20113;-49
2021/06/05 02:33:04;;;;;;;19.83;14.60;;;;;;;20.15;73.52;101794.06;4985997;28;20049;-52
2021/06/05 02:35:40;;;;;;;19.08;14.90;;;;;;;20.14;73.58;101792.44;5050759;28;20052;-54
2021/06/05 02:38:28;;;;;;;19.38;15.25;;;;;;;20.15;73.64;101802.38;5053253;28;20041;-56
2021/06/05 02:41:00;;;;;;;16.80;13.50;;;;;;;20.16;73.97;101798.50;5054383;28;20037;-53
2021/06/05 02:43:31;;;;;;;19.88;15.73;;;;;;;20.17;73.57;101795.41;5055611;28;20520;-51
2021/06/05 02:46:10;;;;;;;20.85;15.43;;;;;;;20.16;73.68;101798.50;5054071;28;20041;-57
2021/06/05 02:48:48;;;;;;;21.70;15.40;;;;;;;20.16;73.44;101804.03;5051667;28;20087;-49
2021/06/05 02:51:23;;;;;;;21.60;15.73;;;;;;;20.15;73.92;101808.72;5050818;28;20060;-48
2021/06/05 02:53:52;;;;;;;23.00;16.90;;;;;;;20.11;73.94;101801.38;5050129;28;20103;-51
2021/06/05 02:56:23;;;;;;;20.85;16.25;;;;;;;20.08;74.25;101807.50;5051084;28;20487;-50
2021/06/05 02:58:52;;;;;;;21.85;16.05;;;;;;;20.04;74.42;101803.72;5050617;28;20057;-51
2021/06/05 03:01:24;;;;;;;23.30;18.25;;;;;;;19.98;74.65;101803.81;5050506;28;20055;-49
2021/06/05 03:03:53;;;;;;;23.00;18.33;;;;;;;19.94;74.68;101804.72;5050472;28;20045;-49
2021/06/05 03:06:21;;;;;;;27.77;19.85;;;;;;;19.87;75.21;101799.63;5050939;28;20602;-50
2021/06/05 03:08:48;;;;;;;27.10;19.60;;;;;;;19.86;75.41;101795.22;5050827;28;20495;-51
2021/06/05 03:11:20;;;;;;;33.15;22.15;;;;;;;19.87;75.43;101799.63;5050469;28;20454;-48
2021/06/05 03:13:53;;;;;;;35.83;22.33;;;;;;;19.85;75.41;101796.34;5051274;28;20068;-50
2021/06/05 03:16:22;;;;;;;31.60;22.75;;;;;;;19.85;75.59;101796.34;5050458;28;20053;-50
2021/06/05 03:18:55;;;;;;;33.67;23.80;;;;;;;19.84;75.87;101791.94;5051912;28;20479;-49
2021/06/05 03:21:23;;;;;;;33.75;23.63;;;;;;;19.84;75.76;101789.16;5052603;28;20045;-50
2021/06/05 03:23:58;;;;;;;29.98;22.50;;;;;;;19.87;75.48;101788.56;5054354;28;20381;-50
2021/06/05 03:26:33;;;;;;;33.08;23.40;;;;;;;19.89;75.50;101785.47;5055756;28;20048;-49
2021/06/05 03:29:04;;;;;;;34.75;22.88;;;;;;;19.90;75.66;101789.91;5055470;28;20054;-50
2021/06/05 03:31:34;;;;;;;27.83;22.77;;;;;;;19.89;75.64;101789.09;5054228;28;20056;-52
2021/06/05 03:34:04;;;;;;;33.50;24.80;;;;;;;19.89;75.73;101788.25;5055484;28;20103;-51
2021/06/05 03:36:32;;;;;;;31.90;26.40;;;;;;;19.78;76.00;101788.44;5055368;28;20461;-49
2021/06/05 03:39:05;;;;;;;32.58;25.10;;;;;;;19.74;76.37;101786.59;5050699;28;20095;-50
2021/06/05 03:41:37;;;;;;;33.40;26.02;;;;;;;19.74;76.44;101786.59;5037848;28;20049;-51
2021/06/05 03:44:05;;;;;;;34.40;27.13;;;;;;;19.75;76.38;101782.72;5047561;28;20072;-49
2021/06/05 03:46:34;;;;;;;32.15;26.02;;;;;;;19.74;76.54;101786.59;5054943;28;20053;-53
2021/06/05 03:49:05;;;;;;;31.67;26.23;;;;;;;19.73;76.11;101784.97;5055323;28;20048;-50
2021/06/05 03:51:34;;;;;;;31.15;24.67;;;;;;;19.73;76.20;101780.25;5054873;28;20499;-50
2021/06/05 03:54:06;;;;;;;36.95;28.80;;;;;;;19.70;76.19;101780.03;5055144;28;20056;-50
2021/06/05 03:56:34;;;;;;;37.28;28.55;;;;;;;19.61;76.10;101779.09;5053917;28;20045;-54
2021/06/05 03:59:02;;;;;;;32.70;27.85;;;;;;;19.49;75.90;101780.41;5054637;28;20098;-49
2021/06/05 04:01:32;;;;;;;34.60;27.60;;;;;;;19.50;75.92;101779.28;5054394;28;20048;-49
2021/06/05 04:04:00;;;;;;;30.17;26.23;;;;;;;19.55;75.84;101781.97;5054876;28;20063;-51
2021/06/05 04:06:28;;;;;;;32.28;26.42;;;;;;;19.56;75.81;101775.31;5054681;28;20536;-52
2021/06/05 04:08:58;;;;;;;31.65;27.73;;;;;;;19.61;75.50;101781.88;5054952;28;20495;-53
2021/06/05 04:11:29;;;;;;;32.20;28.30;;;;;;;19.63;75.16;101785.16;5055356;28;20052;-54
2021/06/05 04:13:58;;;;;;;34.72;30.67;;;;;;;19.63;74.98;101777.66;5054622;28;20487;-55
2021/06/05 04:16:26;;;;;;;37.63;32.15;;;;;;;19.58;74.85;101783.31;5054991;28;20530;-53
2021/06/05 04:18:55;;;;;;;36.30;31.80;;;;;;;19.55;74.80;101781.97;5054431;28;20087;-49
2021/06/05 04:21:24;;;;;;;40.17;34.65;;;;;;;19.53;74.71;101794.44;5054846;28;20057;-53
2021/06/05 04:23:52;;;;;;;40.30;35.35;;;;;;;19.43;74.68;101789.91;5054576;28;20037;-52
2021/06/05 04:26:21;;;;;;;39.30;34.60;;;;;;;19.39;74.75;101791.66;5054456;28;20041;-52
2021/06/05 04:28:49;;;;;;;37.97;31.95;;;;;;;19.41;74.73;101788.56;5053804;28;20106;-51
2021/06/05 04:31:17;;;;;;;42.08;35.50;;;;;;;19.44;74.62;101788.81;5054599;28;20037;-50
2021/06/05 04:33:45;;;;;;;39.70;35.40;;;;;;;19.46;74.66;101797.63;5053628;28;20049;-51
2021/06/05 04:36:15;;;;;;;39.55;34.80;;;;;;;19.47;74.39;101796.47;5054392;28;20073;-53
2021/06/05 04:38:44;;;;;;;48.30;39.63;;;;;;;19.44;74.33;101793.53;5054281;28;20507;-52
2021/06/05 04:41:13;;;;;;;43.28;38.00;;;;;;;19.41;74.64;101794.09;5054400;28;20087;-48
2021/06/05 04:43:41;;;;;;;45.50;39.03;;;;;;;19.37;74.75;101791.16;5053751;28;20076;-47
2021/06/05 04:46:12;;;;;;;51.60;40.78;;;;;;;19.33;74.63;101792.88;5053992;28;20499;-50
2021/06/05 04:48:41;;;;;;;57.35;45.67;;;;;;;19.29;74.63;101791.81;5054410;28;20040;-51
2021/06/05 04:51:09;;;;;;;56.22;43.63;;;;;;;19.27;74.66;101800.44;5053635;28;20083;-48
2021/06/05 04:53:37;;;;;;;56.85;42.03;;;;;;;19.26;74.83;101795.19;5054078;28;20056;-52
2021/06/05 04:56:06;;;;;;;66.25;46.38;;;;;;;19.25;74.48;101799.09;5054002;28;20571;-52
2021/06/05 04:58:34;;;;;;;64.15;44.60;;;;;;;19.19;74.72;101803.06;5053379;28;20065;-52
2021/06/05 05:01:02;;;;;;;75.75;52.50;;;;;;;18.97;74.63;101807.28;5053433;28;20052;-51
2021/06/05 05:03:32;;;;;;;70.85;50.25;;;;;;;18.72;75.62;101800.19;5053846;28;20048;-50
2021/06/05 05:06:02;;;;;;;81.40;53.78;;;;;;;18.69;75.45;101801.63;5053996;28;20138;-50
2021/06/05 05:08:30;;;;;;;80.93;51.03;;;;;;;18.66;75.69;101807.72;5052421;28;20059;-50
2021/06/05 05:10:59;;;;;;;74.18;49.80;;;;;;;18.71;75.58;101810.44;5053881;28;20103;-52
2021/06/05 05:13:30;;;;;;;79.65;52.72;;;;;;;18.77;75.35;101813.94;5052545;28;20172;-51
2021/06/05 05:15:58;;;;;;;83.28;54.53;;;;;;;18.76;74.94;101814.22;5053257;28;20099;-49
2021/06/05 05:18:26;;;;;;;84.57;53.40;;;;;;;18.80;74.89;101818.06;5053174;28;20045;-47
2021/06/05 05:20:54;;;;;;;76.43;51.80;;;;;;;18.78;74.76;101815.59;5053156;28;20053;-48
2021/06/05 05:23:25;;;;;;;78.32;51.67;;;;;;;18.74;74.75;101826.38;5053567;28;20071;-47
2021/06/05 05:25:54;;;;;;;78.93;51.03;;;;;;;18.70;74.80;101827.28;5052223;28;20052;-47
2021/06/05 05:28:22;;;;;;;80.45;52.05;;;;;;;18.64;74.40;101831.22;5052871;28;20040;-48
2021/06/05 05:30:53;;;;;;;77.05;50.33;;;;;;;18.61;74.92;101829.88;5052871;28;20052;-49
2021/06/05 05:33:22;;;;;;;76.40;50.22;;;;;;;18.61;74.90;101829.06;5053115;28;20041;-50
2021/06/05 05:35:51;;;;;;;67.25;47.60;;;;;;;18.65;74.89;101827.34;5053055;28;20041;-49
2021/06/05 05:38:20;;;;;;;80.03;50.85;;;;;;;18.70;74.52;101827.28;5053055;28;20045;-49
2021/06/05 05:40:49;;;;;;;72.63;49.95;;;;;;;18.65;74.19;101825.41;5052310;28;20051;-49
2021/06/05 05:43:17;;;;;;;73.90;50.92;;;;;;;18.63;74.49;101835.09;5051309;28;20124;-49
2021/06/05 05:45:45;;;;;;;76.20;50.15;;;;;;;18.58;74.89;101835.19;5051941;28;20131;-51
2021/06/05 05:48:13;;;;;;;76.43;49.17;;;;;;;18.51;74.45;101833.59;5053145;28;20033;-50
2021/06/05 05:50:43;;;;;;;73.53;48.35;;;;;;;18.51;74.08;101838.31;5052646;28;20483;-49
2021/06/05 05:53:11;;;;;;;74.13;47.17;;;;;;;18.46;74.31;101841.13;5052846;28;20095;-51
2021/06/05 05:55:39;;;;;;;69.45;47.15;;;;;;;18.46;74.65;101838.38;5052275;28;20049;-49
2021/06/05 05:58:11;;;;;;;73.63;50.08;;;;;;;18.52;74.67;101845.47;5052612;28;20075;-50
2021/06/05 06:00:41;;;;;;;79.88;49.38;;;;;;;18.44;74.94;101846.13;5052731;28;20110;-50
2021/06/05 06:03:09;;;;;;;79.13;54.75;;;;;;;18.42;75.06;101848.34;5052522;28;20067;-51
2021/06/05 06:05:37;;;;;;;74.25;48.13;;;;;;;18.44;75.07;101854.41;5052717;28;20056;-52
2021/06/05 06:08:06;;;;;;;74.13;49.60;;;;;;;18.45;75.34;101847.78;5052462;28;20056;-54
2021/06/05 06:10:35;;;;;;;72.85;48.85;;;;;;;18.42;74.92;101851.94;5052262;28;20083;-52
2021/06/05 06:13:04;;;;;;;69.60;45.92;;;;;;;18.45;74.47;101856.06;5052707;28;20049;-51
2021/06/05 06:15:35;;;;;;;68.35;44.00;;;;;;;18.47;74.64;101853.81;5052015;28;20045;-51
2021/06/05 06:18:04;;;;;;;65.32;43.97;;;;;;;18.48;74.41;101861.81;5052413;28;20045;-51
2021/06/05 06:20:35;;;;;;;63.83;41.80;;;;;;;18.43;74.63;101859.13;5052052;28;20037;-51
2021/06/05 06:23:03;;;;;;;68.72;44.42;;;;;;;18.51;74.99;101865.91;5052498;28;20048;-52
2021/06/05 06:25:34;;;;;;;73.85;47.60;;;;;;;18.50;74.55;101869.78;5051655;28;20037;-49
2021/06/05 06:28:01;;;;;;;66.05;45.88;;;;;;;18.48;74.98;101872.84;5052258;28;20056;-53
2021/06/05 06:30:32;;;;;;;68.30;44.72;;;;;;;18.49;74.88;101868.13;5051913;28;20106;-51
2021/06/05 06:33:02;;;;;;;63.47;42.20;;;;;;;18.52;74.60;101873.09;5052160;28;20045;-54
2021/06/05 06:35:31;;;;;;;59.17;39.20;;;;;;;18.56;74.67;101884.34;5051766;28;20076;-49
2021/06/05 06:38:04;;;;;;;62.35;40.40;;;;;;;18.56;74.47;101890.69;5052320;28;20033;-49
2021/06/05 06:40:34;;;;;;;57.67;39.30;;;;;;;18.61;74.34;101889.78;5051344;28;20060;-50
2021/06/05 06:43:03;;;;;;;63.03;41.72;;;;;;;18.58;74.22;101891.19;5051999;28;20041;-50
2021/06/05 06:45:31;;;;;;;59.20;38.83;;;;;;;18.55;74.27;101902.84;5052157;28;20492;-53
2021/06/05 06:47:59;;;;;;;56.78;37.05;;;;;;;18.49;74.42;101893.78;5051947;28;20040;-50
2021/06/05 06:50:29;;;;;;;57.25;38.03;;;;;;;18.55;74.56;101908.38;5052098;28;20045;-50
2021/06/05 06:52:57;;;;;;;53.08;34.50;;;;;;;18.61;74.35;101909.09;5051297;28;20053;-50
2021/06/05 06:55:25;;;;;;;53.15;34.60;;;;;;;18.66;74.52;101903.53;5053075;28;20055;-50
2021/06/05 06:57:53;;;;;;;57.50;36.50;;;;;;;18.58;74.04;101910.53;5058449;28;20033;-50
2021/06/05 07:00:34;;;;;;;56.90;34.22;;;;;;;18.50;74.30;101913.94;5058282;28;20055;-49
2021/06/05 07:03:01;;;;;;;50.72;32.60;;;;;;;18.46;74.50;101910.13;5058390;28;20072;-50
2021/06/05 07:05:29;;;;;;;51.22;32.83;;;;;;;18.48;74.30;101916.19;5058504;28;20451;-51
2021/06/05 07:08:13;;;;;;;49.28;31.23;;;;;;;18.46;74.43;101912.88;5058144;28;20041;-50
2021/06/05 07:10:42;;;;;;;50.28;33.42;;;;;;;18.38;74.60;101924.59;5058420;28;20045;-49
2021/06/05 07:13:10;;;;;;;53.78;33.08;;;;;;;18.25;74.81;101923.34;5057193;28;20106;-51
2021/06/05 07:15:38;;;;;;;49.88;30.83;;;;;;;18.23;75.25;101925.56;5058192;28;20044;-53
2021/06/05 07:18:08;;;;;;;48.75;30.65;;;;;;;18.34;75.24;101926.28;5058542;28;20040;-51
2021/06/05 07:20:37;;;;;;;48.45;29.52;;;;;;;18.35;75.19;101923.25;5058152;28;20049;-51
2021/06/05 07:23:06;;;;;;;46.72;29.33;;;;;;;18.35;74.68;101925.16;5057990;28;20041;-50
2021/06/05 07:25:34;;;;;;;43.75;29.50;;;;;;;18.30;75.08;101926.88;5058182;28;20103;-52
2021/06/05 07:28:17;;;;;;;46.80;29.67;;;;;;;18.31;75.32;101934.03;5058254;28;20049;-51
2021/06/05 07:30:45;;;;;;;44.53;29.42;;;;;;;18.32;75.23;101918.28;5058248;28;20049;-49
2021/06/05 07:33:15;;;;;;;49.92;29.88;;;;;;;18.37;75.05;101926.50;5058112;28;20040;-51
2021/06/05 07:35:43;;;;;;;48.33;29.35;;;;;;;18.41;74.97;101924.00;5058301;28;20037;-49
2021/06/05 07:38:12;;;;;;;46.72;29.70;;;;;;;18.43;75.20;101913.50;5057532;28;20057;-50
2021/06/05 07:40:40;;;;;;;37.28;24.80;;;;;;;18.47;75.05;101917.28;5057913;28;20109;-52
2021/06/05 07:43:08;;;;;;;38.10;24.70;;;;;;;18.52;75.18;101920.00;5058316;28;20041;-51
2021/06/05 07:45:36;;;;;;;36.25;23.52;;;;;;;18.56;74.75;101922.97;5058035;28;20041;-50
2021/06/05 07:48:04;;;;;;;34.35;23.55;;;;;;;18.57;75.45;101927.38;5055275;28;20040;-50
2021/06/05 07:50:32;;;;;;;34.50;21.88;;;;;;;18.52;75.26;101929.09;5057162;28;20059;-48
2021/06/05 07:52:59;;;;;;;31.92;22.08;;;;;;;18.56;75.06;101929.31;5057057;28;20102;-52
2021/06/05 07:55:28;;;;;;;30.38;21.00;;;;;;;18.57;74.99;101921.84;5058141;28;20083;-51
2021/06/05 07:57:56;;;;;;;32.53;21.17;;;;;;;18.52;74.84;101920.00;5056344;28;20045;-50
2021/06/05 08:00:27;;;;;;;31.45;21.98;;;;;;;18.48;75.26;101927.22;5057320;28;20040;-51
2021/06/05 08:02:55;;;;;;;31.95;21.42;;;;;;;18.47;75.42;101922.81;5057501;28;20130;-49
2021/06/05 08:05:24;;;;;;;31.65;20.40;;;;;;;18.49;75.47;101932.44;5057774;28;20033;-49
2021/06/05 08:07:52;;;;;;;32.15;21.65;;;;;;;18.49;75.35;101934.38;5054319;28;20069;-50
2021/06/05 08:10:23;;;;;;;33.78;20.77;;;;;;;18.47;75.53;101928.31;5054378;28;20044;-53
2021/06/05 08:12:51;;;;;;;30.33;21.50;;;;;;;18.45;74.91;101928.63;5054517;28;20048;-49
2021/06/05 08:15:23;;;;;;;37.55;22.00;;;;;;;18.41;75.11;101937.78;5054176;28;20041;-50
2021/06/05 08:17:51;;;;;;;31.48;20.58;;;;;;;18.39;75.56;101940.84;5054437;28;20041;-50
2021/06/05 08:20:22;;;;;;;28.52;20.00;;;;;;;18.36;75.71;101938.66;5053904;28;20488;-50
2021/06/05 08:22:50;;;;;;;24.80;18.10;;;;;;;18.37;75.29;101931.22;5054654;28;20041;-49
2021/06/05 08:25:17;;;;;;;27.08;17.10;;;;;;;18.41;75.34;101933.09;5053934;28;20098;-51
2021/06/05 08:27:45;;;;;;;26.10;16.95;;;;;;;18.42;75.38;101934.72;5054477;28;20080;-50
2021/06/05 08:30:20;;;;;;;24.40;15.45;;;;;;;18.41;75.19;101935.03;5054396;28;20494;-50
2021/06/05 08:32:47;;;;;;;20.33;14.95;;;;;;;18.42;75.08;101931.97;5054564;28;20076;-50
2021/06/05 08:35:15;;;;;;;18.90;12.98;;;;;;;18.45;75.16;101936.91;5052512;28;20041;-53
2021/06/05 08:37:43;;;;;;;20.38;13.32;;;;;;;18.49;75.01;101934.38;5054929;28;20075;-50
2021/06/05 08:40:13;;;;;;;18.88;13.45;;;;;;;18.52;74.90;101926.34;5054142;28;20099;-49
2021/06/05 08:42:50;;;;;;;16.65;12.32;;;;;;;18.58;74.91;101926.28;5053864;28;20098;-49
2021/06/05 08:45:24;;;;;;;19.13;12.00;;;;;;;18.62;74.26;101927.34;5056074;28;20541;-49
2021/06/05 08:47:52;;;;;;;14.65;11.18;;;;;;;18.62;74.27;101936.44;5068730;28;20041;-50
2021/06/05 08:50:25;;;;;;;17.85;11.80;;;;;;;18.59;74.15;101937.03;5053495;28;20077;-49
2021/06/05 08:53:07;;;;;;;17.98;13.07;;;;;;;18.55;74.36;101933.22;5053848;28;20049;-51
2021/06/05 08:55:56;;;;;;;17.42;11.90;;;;;;;18.52;74.88;101931.03;5069012;28;20049;-49
2021/06/05 08:58:32;;;;;;;17.45;11.65;;;;;;;18.49;74.86;101937.13;5041734;28;20045;-49
2021/06/05 09:01:37;;;;;;;15.48;10.93;;;;;;;18.49;75.08;101928.84;5053775;28;20045;-49
2021/06/05 09:04:17;;;;;;;17.65;11.88;;;;;;;18.54;75.30;101942.59;5040641;28;20076;-47
2021/06/05 09:06:52;;;;;;;18.80;13.45;;;;;;;18.53;75.42;101936.25;5053488;28;20049;-50
2021/06/05 09:09:24;;;;;;;22.20;15.32;;;;;;;18.52;75.33;101942.91;5053517;28;20049;-51
2021/06/05 09:11:53;;;;;;;21.95;15.45;;;;;;;18.50;75.08;101945.13;5053759;28;20573;-49
2021/06/05 09:14:20;;;;;;;20.85;15.45;;;;;;;18.48;75.29;101941.03;5053346;28;20079;-50
2021/06/05 09:16:52;;;;;;;21.83;15.15;;;;;;;18.45;75.49;101949.91;5053059;28;20114;-48
2021/06/05 09:19:28;;;;;;;19.88;14.52;;;;;;;18.44;75.49;101940.78;4351120;28;10000416;-48
2021/06/05 09:22:07;;;;;;;21.55;14.10;;;;;;;18.45;75.24;101949.91;5050970;28;20085;-50
2021/06/05 09:24:44;;;;;;;21.10;13.65;;;;;;;18.45;75.11;101953.47;5050952;28;20045;-49
2021/06/05 09:27:18;;;;;;;20.55;13.80;;;;;;;18.48;75.41;101963.09;5051353;28;20834;-50
2021/06/05 09:30:02;;;;;;;17.45;13.20;;;;;;;18.51;75.39;101948.69;5050394;28;20049;-49
2021/06/05 09:32:54;;;;;;;19.90;12.93;;;;;;;18.54;75.12;101948.09;5050622;28;20114;-52
2021/06/05 09:35:40;;;;;;;17.05;12.18;;;;;;;18.51;75.22;101954.22;5051016;28;20507;-51
2021/06/05 09:38:33;;;;;;;14.02;9.93;;;;;;;18.52;74.69;101950.38;5051008;28;20041;-49
2021/06/05 09:41:06;;;;;;;16.23;11.02;;;;;;;18.50;74.55;101947.88;5050690;28;20508;-49
2021/06/05 09:43:35;;;;;;;14.48;10.65;;;;;;;18.49;74.68;101956.44;5050945;28;20041;-51
2021/06/05 09:46:28;;;;;;;16.25;10.88;;;;;;;18.47;74.87;101965.03;5050614;28;20045;-49
2021/06/05 09:49:17;;;;;;;15.48;11.73;;;;;;;18.46;75.19;101968.91;5050233;28;20045;-50
2021/06/05 09:51:58;;;;;;;21.30;14.75;;;;;;;18.47;75.52;101964.19;5039750;28;20048;-50
2021/06/05 09:54:36;;;;;;;30.30;20.92;;;;;;;18.46;75.84;101970.84;5048245;28;20041;-48
2021/06/05 09:57:36;;;;;;;34.20;23.98;;;;;;;18.44;75.87;101973.06;5050422;28;20033;-49
2021/06/05 10:00:22;;;;;;;33.65;23.50;;;;;;;18.37;76.08;101969.84;5046645;28;20102;-50
2021/06/05 10:02:54;;;;;;;37.17;26.13;;;;;;;18.36;75.91;101974.53;5049765;28;20053;-49
2021/06/05 10:05:29;;;;;;;34.78;24.10;;;;;;;18.34;75.72;101973.19;5051853;28;20767;-52
2021/06/05 10:08:00;;;;;;;35.00;25.27;;;;;;;18.31;75.90;101972.66;5067878;28;20037;-49
2021/06/05 10:10:44;;;;;;;34.38;24.42;;;;;;;18.26;76.20;101978.22;5054731;28;20052;-50
2021/06/05 10:13:16;;;;;;;36.35;26.40;;;;;;;18.29;76.28;101982.34;5074809;28;20049;-48
2021/06/05 10:15:53;;;;;;;36.15;25.65;;;;;;;18.25;75.87;101979.34;5073565;28;20052;-50
2021/06/05 10:18:28;;;;;;;35.58;25.23;;;;;;;18.22;75.91;101985.44;5057206;28;20045;-52
2021/06/05 10:21:02;;;;;;;38.30;27.37;;;;;;;18.16;76.03;101983.88;5071705;28;20774;-53
2021/06/05 10:23:36;;;;;;;39.75;29.65;;;;;;;18.13;76.24;101987.19;5067609;28;20045;-51
2021/06/05 10:26:17;;;;;;;43.47;32.67;;;;;;;18.06;76.25;101989.44;5068128;28;20056;-51
2021/06/05 10:29:00;;;;;;;43.33;31.33;;;;;;;18.02;76.12;101980.13;5067091;28;20053;-58
2021/06/05 10:31:27;;;;;;;41.80;30.60;;;;;;;18.01;75.81;101987.56;5066527;28;20045;-48
2021/06/05 10:34:04;;;;;;;42.58;30.27;;;;;;;18.03;75.96;101993.63;5051691;28;20051;-48
2021/06/05 10:36:50;;;;;;;47.05;31.65;;;;;;;18.10;75.90;101982.25;5051242;28;20045;-50
2021/06/05 10:39:28;;;;;;;43.10;32.28;;;;;;;18.15;75.91;101984.97;5067222;28;20102;-50
2021/06/05 10:42:03;;;;;;;41.90;30.92;;;;;;;18.17;75.44;101987.44;5052201;28;20426;-47
2021/06/05 10:44:31;;;;;;;41.10;31.25;;;;;;;18.18;75.58;101995.41;5067130;28;20053;-49
2021/06/05 10:47:26;;;;;;;41.17;29.88;;;;;;;18.25;75.46;101989.56;5051244;28;20041;-52
2021/06/05 10:50:18;;;;;;;41.03;30.40;;;;;;;18.29;75.01;101998.91;5035273;28;20057;-53
2021/06/05 10:53:19;;;;;;;39.40;30.98;;;;;;;18.26;74.77;101994.78;5064662;28;20044;-52
2021/06/05 10:55:49;;;;;;;42.35;32.13;;;;;;;18.21;75.22;101997.59;4976755;28;20065;-49
2021/06/05 10:58:20;;;;;;;39.97;32.38;;;;;;;18.22;74.85;101987.38;4993845;28;20168;-53
2021/06/05 11:00:53;;;;;;;39.72;30.52;;;;;;;18.25;74.98;102001.41;5009230;28;20042;-52
2021/06/05 11:03:23;;;;;;;39.25;31.23;;;;;;;18.30;74.99;101998.63;5009306;28;20050;-48
2021/06/05 11:06:20;;;;;;;38.13;30.02;;;;;;;18.30;74.34;101998.63;5009725;28;20065;-48
2021/06/05 11:08:51;;;;;;;41.25;32.50;;;;;;;18.25;74.35;101995.88;4648030;28;10000481;-45
2021/06/05 11:11:41;;;;;;;37.67;29.55;;;;;;;18.22;73.88;101990.13;5007213;28;20428;-49
2021/06/05 11:14:15;;;;;;;36.33;28.63;;;;;;;18.26;74.20;101992.03;5006900;28;20586;-49
2021/06/05 11:16:58;;;;;;;33.20;26.33;;;;;;;18.30;73.67;101993.09;5006781;28;20050;-49
2021/06/05 11:19:53;;;;;;;35.33;27.90;;;;;;;18.43;73.68;101996.28;4997198;28;20090;-47
2021/06/05 11:22:48;;;;;;;34.10;26.52;;;;;;;18.54;73.07;101995.03;5006905;28;20583;-49
2021/06/05 11:25:16;;;;;;;30.67;25.33;;;;;;;18.60;73.27;101991.09;5006548;28;20050;-48
2021/06/05 11:27:52;;;;;;;34.22;26.60;;;;;;;18.63;73.08;101990.50;5006996;28;20061;-49
2021/06/05 11:30:20;;;;;;;29.98;26.05;;;;;;;18.61;73.12;101998.25;5006380;28;20042;-50
2021/06/05 11:33:05;;;;;;;32.20;26.00;;;;;;;18.61;73.03;101994.69;5038032;28;20049;-49
2021/06/05 11:35:57;;;;;;;32.88;25.92;;;;;;;18.61;72.95;101992.75;5064098;28;20056;-48